SFR510 FACT-FALE
Flight info
| Callsign | SFR510 |
|---|---|
| Flight time | 1h 47m |
| Altitude | 37000 |
| Route | OKTED1B OKTED UQ12 DUNSA DUNSA1B |
| Aircraft | B738/M-SDE2E3FGHIRWXY/LB1 |
Departure
| Time | 2026-05-04 18:00 |
|---|---|
| Airport | Cape Town International Airport (FACT) |
Arrival
| Time | 2026-05-04 19:47 |
|---|---|
| Airport | King Shaka International Airport (FALE) |
| Time | Latitude | Longitude | Altitude | Speed | Heading |
|---|---|---|---|---|---|
| 2026-05-04 17:21 | -33.97034 | 18.59852 | 157 ft | 0 kts | 256° |
| 2026-05-04 17:48 | -33.97031 | 18.59870 | 153 ft | 4 kts | 256° |
| 2026-05-04 17:49 | -33.97024 | 18.59900 | 153 ft | 2 kts | 256° |
| 2026-05-04 17:49 | -33.97022 | 18.59926 | 153 ft | 4 kts | 292° |
| 2026-05-04 17:49 | -33.97037 | 18.59945 | 153 ft | 4 kts | 343° |
| 2026-05-04 17:49 | -33.97051 | 18.59949 | 153 ft | 1 kts | 346° |
| 2026-05-04 17:50 | -33.97052 | 18.59949 | 153 ft | 0 kts | 346° |
| 2026-05-04 17:55 | -33.97050 | 18.59949 | 153 ft | 2 kts | 346° |
| 2026-05-04 17:55 | -33.97013 | 18.59937 | 153 ft | 7 kts | 346° |
| 2026-05-04 17:55 | -33.96964 | 18.59921 | 153 ft | 7 kts | 344° |
| 2026-05-04 17:56 | -33.96917 | 18.59905 | 153 ft | 7 kts | 346° |
| 2026-05-04 17:56 | -33.96870 | 18.59890 | 153 ft | 7 kts | 345° |
| 2026-05-04 17:56 | -33.96814 | 18.59872 | 153 ft | 9 kts | 344° |
| 2026-05-04 17:56 | -33.96732 | 18.59844 | 153 ft | 14 kts | 344° |
| 2026-05-04 17:57 | -33.96641 | 18.59816 | 153 ft | 13 kts | 348° |
| 2026-05-04 17:57 | -33.96554 | 18.59791 | 153 ft | 13 kts | 345° |
| 2026-05-04 17:57 | -33.96467 | 18.59769 | 153 ft | 12 kts | 350° |
| 2026-05-04 17:57 | -33.96383 | 18.59751 | 153 ft | 13 kts | 350° |
| 2026-05-04 17:58 | -33.96289 | 18.59731 | 153 ft | 14 kts | 349° |
| 2026-05-04 17:58 | -33.96203 | 18.59756 | 153 ft | 13 kts | 41° |
| 2026-05-04 17:58 | -33.96138 | 18.59831 | 152 ft | 13 kts | 45° |
| 2026-05-04 17:58 | -33.96078 | 18.59905 | 153 ft | 12 kts | 45° |
| 2026-05-04 17:59 | -33.96033 | 18.59975 | 153 ft | 10 kts | 73° |
| 2026-05-04 17:59 | -33.96069 | 18.60032 | 153 ft | 9 kts | 161° |
| 2026-05-04 17:59 | -33.96384 | 18.60132 | 154 ft | 73 kts | 165° |
| 2026-05-04 18:00 | -33.97093 | 18.60356 | 155 ft | 136 kts | 165° |
| 2026-05-04 18:00 | -33.98135 | 18.60661 | 392 ft | 165 kts | 169° |
| 2026-05-04 18:00 | -33.99306 | 18.60972 | 915 ft | 181 kts | 169° |
| 2026-05-04 18:00 | -34.00589 | 18.61293 | 1530 ft | 193 kts | 171° |
| 2026-05-04 18:01 | -34.01887 | 18.61612 | 2468 ft | 185 kts | 170° |
| 2026-05-04 18:01 | -34.03131 | 18.62010 | 3289 ft | 188 kts | 166° |
| 2026-05-04 18:01 | -34.04460 | 18.62557 | 3601 ft | 215 kts | 164° |
| 2026-05-04 18:02 | -34.07544 | 18.63898 | 4083 ft | 258 kts | 163° |
| 2026-05-04 18:02 | -34.09266 | 18.64753 | 4493 ft | 276 kts | 149° |
| 2026-05-04 18:02 | -34.10514 | 18.66519 | 5253 ft | 283 kts | 112° |
| 2026-05-04 18:02 | -34.10911 | 18.68842 | 6104 ft | 284 kts | 96° |
| 2026-05-04 18:03 | -34.11141 | 18.71242 | 6838 ft | 290 kts | 96° |
| 2026-05-04 18:03 | -34.11378 | 18.73682 | 7586 ft | 294 kts | 96° |
| 2026-05-04 18:03 | -34.11638 | 18.76136 | 8384 ft | 297 kts | 97° |
| 2026-05-04 18:03 | -34.11917 | 18.78589 | 9123 ft | 301 kts | 97° |
| 2026-05-04 18:04 | -34.12226 | 18.81152 | 9830 ft | 307 kts | 97° |
| 2026-05-04 18:04 | -34.12550 | 18.83730 | 10421 ft | 317 kts | 98° |
| 2026-05-04 18:04 | -34.13275 | 18.89330 | 10872 ft | 359 kts | 98° |
| 2026-05-04 18:05 | -34.13672 | 18.92333 | 11472 ft | 365 kts | 98° |
| 2026-05-04 18:05 | -34.14076 | 18.95372 | 12241 ft | 367 kts | 99° |
| 2026-05-04 18:05 | -34.14483 | 18.98427 | 12948 ft | 371 kts | 99° |
| 2026-05-04 18:05 | -34.14898 | 19.01535 | 13618 ft | 376 kts | 99° |
| 2026-05-04 18:06 | -34.15736 | 19.07843 | 14796 ft | 386 kts | 98° |
| 2026-05-04 18:06 | -34.16163 | 19.11066 | 15343 ft | 392 kts | 98° |
| 2026-05-04 18:06 | -34.16595 | 19.14340 | 15830 ft | 399 kts | 96° |
| 2026-05-04 18:07 | -34.17034 | 19.17676 | 16372 ft | 405 kts | 96° |
| 2026-05-04 18:07 | -34.17479 | 19.21055 | 16966 ft | 409 kts | 96° |
| 2026-05-04 18:07 | -34.17927 | 19.24463 | 17512 ft | 414 kts | 95° |
| 2026-05-04 18:07 | -34.18380 | 19.27917 | 18073 ft | 418 kts | 95° |
| 2026-05-04 18:08 | -34.18836 | 19.31406 | 18551 ft | 423 kts | 95° |
| 2026-05-04 18:08 | -34.19296 | 19.34935 | 19033 ft | 428 kts | 95° |
| 2026-05-04 18:08 | -34.19755 | 19.38459 | 19539 ft | 431 kts | 94° |
| 2026-05-04 18:08 | -34.20221 | 19.42050 | 20008 ft | 435 kts | 94° |
| 2026-05-04 18:09 | -34.21169 | 19.49365 | 20831 ft | 446 kts | 93° |
| 2026-05-04 18:09 | -34.21957 | 19.56874 | 21566 ft | 447 kts | 84° |
| 2026-05-04 18:10 | -34.21806 | 19.60602 | 22062 ft | 443 kts | 77° |
| 2026-05-04 18:10 | -34.21533 | 19.64273 | 22496 ft | 446 kts | 76° |
| 2026-05-04 18:10 | -34.21235 | 19.68027 | 22927 ft | 451 kts | 76° |
| 2026-05-04 18:10 | -34.20940 | 19.71812 | 23370 ft | 455 kts | 76° |
| 2026-05-04 18:11 | -34.20655 | 19.75642 | 23776 ft | 458 kts | 76° |
| 2026-05-04 18:11 | -34.20380 | 19.79493 | 24163 ft | 461 kts | 76° |
| 2026-05-04 18:11 | -34.20112 | 19.83357 | 24507 ft | 463 kts | 76° |
| 2026-05-04 18:11 | -34.19844 | 19.87244 | 24877 ft | 466 kts | 76° |
| 2026-05-04 18:12 | -34.19574 | 19.91158 | 25250 ft | 468 kts | 76° |
| 2026-05-04 18:12 | -34.19301 | 19.95086 | 25620 ft | 471 kts | 76° |
| 2026-05-04 18:12 | -34.19025 | 19.99038 | 25995 ft | 473 kts | 76° |
| 2026-05-04 18:12 | -34.18746 | 20.03001 | 26352 ft | 475 kts | 76° |
| 2026-05-04 18:13 | -34.18464 | 20.06990 | 26698 ft | 477 kts | 76° |
| 2026-05-04 18:13 | -34.18183 | 20.10955 | 27024 ft | 480 kts | 76° |
| 2026-05-04 18:13 | -34.17384 | 20.18938 | 27614 ft | 472 kts | 65° |
| 2026-05-04 18:14 | -34.16410 | 20.22668 | 27933 ft | 460 kts | 55° |
| 2026-05-04 18:14 | -34.15096 | 20.26178 | 28263 ft | 458 kts | 53° |
| 2026-05-04 18:14 | -34.13746 | 20.29678 | 28572 ft | 460 kts | 53° |
| 2026-05-04 18:15 | -34.11052 | 20.36727 | 29145 ft | 465 kts | 54° |
| 2026-05-04 18:15 | -34.08374 | 20.43866 | 29740 ft | 469 kts | 54° |
| 2026-05-04 18:15 | -34.07030 | 20.47472 | 29967 ft | 471 kts | 54° |
| 2026-05-04 18:16 | -34.05687 | 20.51077 | 30298 ft | 470 kts | 53° |
| 2026-05-04 18:16 | -34.04344 | 20.54678 | 30561 ft | 471 kts | 53° |
| 2026-05-04 18:16 | -34.02994 | 20.58285 | 30798 ft | 472 kts | 53° |
| 2026-05-04 18:17 | -34.00286 | 20.65507 | 31351 ft | 473 kts | 53° |
| 2026-05-04 18:17 | -33.98949 | 20.69067 | 31633 ft | 473 kts | 54° |
| 2026-05-04 18:17 | -33.96214 | 20.76314 | 32172 ft | 474 kts | 54° |
| 2026-05-04 18:18 | -33.94847 | 20.79925 | 32475 ft | 472 kts | 54° |
| 2026-05-04 18:18 | -33.92102 | 20.87142 | 32758 ft | 476 kts | 53° |
| 2026-05-04 18:18 | -33.90722 | 20.90771 | 32993 ft | 476 kts | 53° |
| 2026-05-04 18:19 | -33.87980 | 20.98002 | 33560 ft | 473 kts | 52° |
| 2026-05-04 18:19 | -33.86609 | 21.01593 | 33796 ft | 473 kts | 52° |
| 2026-05-04 18:19 | -33.85230 | 21.05197 | 33958 ft | 475 kts | 52° |
| 2026-05-04 18:20 | -33.83849 | 21.08805 | 34117 ft | 475 kts | 52° |
| 2026-05-04 18:20 | -33.82480 | 21.12387 | 34315 ft | 475 kts | 53° |
| 2026-05-04 18:20 | -33.81100 | 21.15999 | 34485 ft | 475 kts | 52° |
| 2026-05-04 18:20 | -33.79716 | 21.19615 | 34633 ft | 476 kts | 52° |
| 2026-05-04 18:21 | -33.78326 | 21.23243 | 34805 ft | 477 kts | 53° |
| 2026-05-04 18:21 | -33.76939 | 21.26859 | 35009 ft | 477 kts | 53° |
| 2026-05-04 18:21 | -33.75546 | 21.30489 | 35207 ft | 476 kts | 53° |
| 2026-05-04 18:21 | -33.74171 | 21.34067 | 35370 ft | 477 kts | 53° |
| 2026-05-04 18:22 | -33.72776 | 21.37692 | 35533 ft | 477 kts | 53° |
| 2026-05-04 18:22 | -33.71382 | 21.41310 | 35702 ft | 477 kts | 53° |
| 2026-05-04 18:22 | -33.69986 | 21.44928 | 35868 ft | 477 kts | 53° |
| 2026-05-04 18:22 | -33.68596 | 21.48542 | 36005 ft | 477 kts | 53° |
| 2026-05-04 18:23 | -33.67204 | 21.52155 | 36151 ft | 477 kts | 53° |
| 2026-05-04 18:23 | -33.65802 | 21.55775 | 36274 ft | 479 kts | 53° |
| 2026-05-04 18:23 | -33.64395 | 21.59395 | 36424 ft | 479 kts | 53° |
| 2026-05-04 18:23 | -33.62986 | 21.63020 | 36598 ft | 479 kts | 54° |
| 2026-05-04 18:24 | -33.61580 | 21.66637 | 36754 ft | 479 kts | 54° |
| 2026-05-04 18:24 | -33.60169 | 21.70266 | 36906 ft | 479 kts | 54° |
| 2026-05-04 18:24 | -33.57341 | 21.77526 | 37000 ft | 482 kts | 54° |
| 2026-05-04 18:25 | -33.54522 | 21.84763 | 37000 ft | 478 kts | 53° |
| 2026-05-04 18:25 | -33.51704 | 21.91982 | 37009 ft | 475 kts | 53° |
| 2026-05-04 18:26 | -33.48901 | 21.99137 | 37002 ft | 473 kts | 53° |
| 2026-05-04 18:26 | -33.46103 | 22.06255 | 36988 ft | 472 kts | 53° |
| 2026-05-04 18:27 | -33.43303 | 22.13370 | 36939 ft | 472 kts | 52° |
| 2026-05-04 18:27 | -33.40518 | 22.20430 | 37006 ft | 472 kts | 52° |
| 2026-05-04 18:28 | -33.37697 | 22.27571 | 36997 ft | 475 kts | 52° |
| 2026-05-04 18:28 | -33.34846 | 22.34764 | 36976 ft | 479 kts | 52° |
| 2026-05-04 18:29 | -33.32038 | 22.41961 | 36995 ft | 484 kts | 56° |
| 2026-05-04 18:29 | -33.29541 | 22.49489 | 36972 ft | 488 kts | 57° |
| 2026-05-04 18:30 | -33.25899 | 22.60877 | 36988 ft | 489 kts | 57° |
| 2026-05-04 18:31 | -33.23415 | 22.68482 | 36979 ft | 490 kts | 57° |
| 2026-05-04 18:31 | -33.20938 | 22.76011 | 36970 ft | 489 kts | 57° |
| 2026-05-04 18:32 | -33.18447 | 22.83569 | 36973 ft | 488 kts | 56° |
| 2026-05-04 18:32 | -33.15959 | 22.91099 | 36961 ft | 487 kts | 56° |
| 2026-05-04 18:33 | -33.13470 | 22.98613 | 36964 ft | 487 kts | 56° |
| 2026-05-04 18:33 | -33.10971 | 23.06130 | 36964 ft | 487 kts | 56° |
| 2026-05-04 18:34 | -33.08470 | 23.13643 | 36924 ft | 487 kts | 56° |
| 2026-05-04 18:34 | -33.05981 | 23.21102 | 36946 ft | 487 kts | 56° |
| 2026-05-04 18:35 | -33.03470 | 23.28609 | 36955 ft | 488 kts | 56° |
| 2026-05-04 18:35 | -33.01357 | 23.34913 | 36950 ft | 489 kts | 56° |
| 2026-05-04 18:36 | -32.98416 | 23.43672 | 36871 ft | 490 kts | 56° |
| 2026-05-04 18:36 | -32.96293 | 23.49985 | 36943 ft | 489 kts | 56° |
| 2026-05-04 18:37 | -32.93773 | 23.57454 | 36937 ft | 489 kts | 56° |
| 2026-05-04 18:37 | -32.91237 | 23.64975 | 36919 ft | 490 kts | 56° |
| 2026-05-04 18:38 | -32.88695 | 23.72507 | 36935 ft | 490 kts | 56° |
| 2026-05-04 18:38 | -32.86155 | 23.80020 | 36923 ft | 488 kts | 55° |
| 2026-05-04 18:39 | -32.83618 | 23.87506 | 36928 ft | 488 kts | 55° |
| 2026-05-04 18:39 | -32.81077 | 23.94982 | 36930 ft | 487 kts | 55° |
| 2026-05-04 18:40 | -32.78537 | 24.02439 | 36926 ft | 486 kts | 55° |
| 2026-05-04 18:40 | -32.76013 | 24.09831 | 36903 ft | 485 kts | 55° |
| 2026-05-04 18:41 | -32.73474 | 24.17250 | 36912 ft | 485 kts | 55° |
| 2026-05-04 18:41 | -32.70925 | 24.24677 | 36932 ft | 484 kts | 55° |
| 2026-05-04 18:42 | -32.68394 | 24.32038 | 36924 ft | 485 kts | 55° |
| 2026-05-04 18:42 | -32.65843 | 24.39441 | 36867 ft | 485 kts | 55° |
| 2026-05-04 18:43 | -32.63288 | 24.46841 | 36913 ft | 485 kts | 55° |
| 2026-05-04 18:43 | -32.60726 | 24.54242 | 36922 ft | 485 kts | 55° |
| 2026-05-04 18:44 | -32.58154 | 24.61652 | 36916 ft | 486 kts | 55° |
| 2026-05-04 18:44 | -32.55574 | 24.69071 | 36919 ft | 487 kts | 55° |
| 2026-05-04 18:45 | -32.52987 | 24.76496 | 36922 ft | 488 kts | 55° |
| 2026-05-04 18:45 | -32.50390 | 24.83930 | 36915 ft | 488 kts | 55° |
| 2026-05-04 18:46 | -32.47788 | 24.91366 | 36923 ft | 488 kts | 55° |
| 2026-05-04 18:46 | -32.45181 | 24.98797 | 36916 ft | 488 kts | 54° |
| 2026-05-04 18:47 | -32.42573 | 25.06217 | 36926 ft | 487 kts | 55° |
| 2026-05-04 18:47 | -32.39985 | 25.13562 | 36944 ft | 486 kts | 54° |
| 2026-05-04 18:48 | -32.37374 | 25.20948 | 36926 ft | 487 kts | 54° |
| 2026-05-04 18:48 | -32.34759 | 25.28337 | 36951 ft | 486 kts | 54° |
| 2026-05-04 18:49 | -32.32142 | 25.35714 | 36916 ft | 486 kts | 54° |
| 2026-05-04 18:49 | -32.29519 | 25.43088 | 36920 ft | 486 kts | 54° |
| 2026-05-04 18:50 | -32.26891 | 25.50469 | 36898 ft | 486 kts | 55° |
| 2026-05-04 18:50 | -32.24289 | 25.57767 | 36922 ft | 486 kts | 54° |
| 2026-05-04 18:51 | -32.21646 | 25.65131 | 36880 ft | 488 kts | 54° |
| 2026-05-04 18:51 | -32.18991 | 25.72524 | 36919 ft | 489 kts | 54° |
| 2026-05-04 18:52 | -32.16326 | 25.79934 | 36923 ft | 491 kts | 54° |
| 2026-05-04 18:52 | -32.13664 | 25.87325 | 36926 ft | 493 kts | 54° |
| 2026-05-04 18:53 | -32.10973 | 25.94787 | 36936 ft | 493 kts | 54° |
| 2026-05-04 18:53 | -32.08277 | 26.02239 | 36933 ft | 493 kts | 54° |
| 2026-05-04 18:54 | -32.05578 | 26.09679 | 36945 ft | 493 kts | 54° |
| 2026-05-04 18:54 | -32.02878 | 26.17109 | 36943 ft | 493 kts | 54° |
| 2026-05-04 18:55 | -32.00196 | 26.24474 | 36946 ft | 492 kts | 54° |
| 2026-05-04 18:55 | -31.96151 | 26.35553 | 36950 ft | 489 kts | 54° |
| 2026-05-04 18:56 | -31.93450 | 26.42893 | 36946 ft | 488 kts | 54° |
| 2026-05-04 18:56 | -31.90752 | 26.50204 | 36953 ft | 487 kts | 54° |
| 2026-05-04 18:57 | -31.88054 | 26.57503 | 36913 ft | 486 kts | 54° |
| 2026-05-04 18:57 | -31.85355 | 26.64792 | 36951 ft | 486 kts | 54° |
| 2026-05-04 18:58 | -31.82645 | 26.72094 | 36966 ft | 486 kts | 54° |
| 2026-05-04 18:58 | -31.79943 | 26.79362 | 36959 ft | 489 kts | 54° |
| 2026-05-04 18:59 | -31.77214 | 26.86698 | 36951 ft | 491 kts | 54° |
| 2026-05-04 18:59 | -31.74471 | 26.94069 | 36943 ft | 493 kts | 54° |
| 2026-05-04 19:00 | -31.71716 | 27.01461 | 36961 ft | 494 kts | 54° |
| 2026-05-04 19:00 | -31.68948 | 27.08877 | 36957 ft | 496 kts | 54° |
| 2026-05-04 19:01 | -31.66184 | 27.16267 | 36936 ft | 494 kts | 54° |
| 2026-05-04 19:01 | -31.63436 | 27.23612 | 36947 ft | 488 kts | 54° |
| 2026-05-04 19:02 | -31.60707 | 27.30879 | 36964 ft | 485 kts | 54° |
| 2026-05-04 19:02 | -31.57985 | 27.38096 | 36965 ft | 483 kts | 54° |
| 2026-05-04 19:03 | -31.55260 | 27.45306 | 36966 ft | 484 kts | 54° |
| 2026-05-04 19:03 | -31.52531 | 27.52522 | 36962 ft | 483 kts | 54° |
| 2026-05-04 19:04 | -31.49798 | 27.59731 | 36966 ft | 485 kts | 54° |
| 2026-05-04 19:04 | -31.47049 | 27.66965 | 36976 ft | 487 kts | 54° |
| 2026-05-04 19:05 | -31.44301 | 27.74187 | 36973 ft | 490 kts | 54° |
| 2026-05-04 19:05 | -31.41518 | 27.81495 | 36981 ft | 492 kts | 54° |
| 2026-05-04 19:06 | -31.38712 | 27.88823 | 36990 ft | 494 kts | 54° |
| 2026-05-04 19:06 | -31.35858 | 27.96153 | 36982 ft | 495 kts | 54° |
| 2026-05-04 19:07 | -31.32998 | 28.03485 | 36976 ft | 495 kts | 54° |
| 2026-05-04 19:07 | -31.30165 | 28.10752 | 36976 ft | 493 kts | 54° |
| 2026-05-04 19:08 | -31.27329 | 28.18057 | 36972 ft | 492 kts | 54° |
| 2026-05-04 19:08 | -31.24528 | 28.25337 | 36979 ft | 490 kts | 54° |
| 2026-05-04 19:09 | -31.21733 | 28.32583 | 36977 ft | 489 kts | 54° |
| 2026-05-04 19:09 | -31.18930 | 28.39825 | 36952 ft | 487 kts | 54° |
| 2026-05-04 19:10 | -31.16134 | 28.47029 | 36994 ft | 487 kts | 54° |
| 2026-05-04 19:10 | -31.13349 | 28.54192 | 36948 ft | 487 kts | 54° |
| 2026-05-04 19:11 | -31.10533 | 28.61416 | 36995 ft | 489 kts | 54° |
| 2026-05-04 19:11 | -31.07704 | 28.68660 | 36963 ft | 492 kts | 55° |
| 2026-05-04 19:12 | -31.03447 | 28.79543 | 36969 ft | 495 kts | 55° |
| 2026-05-04 19:13 | -31.00574 | 28.86870 | 36983 ft | 498 kts | 55° |
| 2026-05-04 19:13 | -30.97677 | 28.94226 | 37001 ft | 500 kts | 55° |
| 2026-05-04 19:14 | -30.94775 | 29.01576 | 36990 ft | 503 kts | 55° |
| 2026-05-04 19:14 | -30.91850 | 29.08981 | 36997 ft | 504 kts | 55° |
| 2026-05-04 19:15 | -30.88913 | 29.16405 | 37026 ft | 505 kts | 55° |
| 2026-05-04 19:15 | -30.85992 | 29.23784 | 37003 ft | 498 kts | 55° |
| 2026-05-04 19:16 | -30.83070 | 29.31132 | 36400 ft | 501 kts | 55° |
| 2026-05-04 19:16 | -30.81608 | 29.34803 | 35897 ft | 499 kts | 56° |
| 2026-05-04 19:16 | -30.80149 | 29.38465 | 35355 ft | 498 kts | 56° |
| 2026-05-04 19:16 | -30.78700 | 29.42104 | 34978 ft | 493 kts | 56° |
| 2026-05-04 19:17 | -30.77262 | 29.45711 | 34574 ft | 489 kts | 56° |
| 2026-05-04 19:17 | -30.75853 | 29.49242 | 34142 ft | 485 kts | 56° |
| 2026-05-04 19:17 | -30.74441 | 29.52777 | 33737 ft | 480 kts | 56° |
| 2026-05-04 19:17 | -30.73035 | 29.56288 | 33265 ft | 477 kts | 56° |
| 2026-05-04 19:18 | -30.71641 | 29.59766 | 32843 ft | 472 kts | 56° |
| 2026-05-04 19:18 | -30.70258 | 29.63213 | 32439 ft | 467 kts | 56° |
| 2026-05-04 19:18 | -30.68892 | 29.66614 | 32056 ft | 462 kts | 56° |
| 2026-05-04 19:18 | -30.67534 | 29.69994 | 31664 ft | 459 kts | 56° |
| 2026-05-04 19:19 | -30.66186 | 29.73340 | 31264 ft | 455 kts | 57° |
| 2026-05-04 19:19 | -30.64848 | 29.76662 | 30879 ft | 452 kts | 57° |
| 2026-05-04 19:19 | -30.63521 | 29.79952 | 30494 ft | 448 kts | 57° |
| 2026-05-04 19:19 | -30.62220 | 29.83177 | 30091 ft | 445 kts | 57° |
| 2026-05-04 19:20 | -30.60910 | 29.86420 | 29650 ft | 442 kts | 57° |
| 2026-05-04 19:20 | -30.59612 | 29.89632 | 29229 ft | 438 kts | 57° |
| 2026-05-04 19:20 | -30.58326 | 29.92814 | 28828 ft | 434 kts | 57° |
| 2026-05-04 19:20 | -30.57048 | 29.95971 | 28423 ft | 430 kts | 56° |
| 2026-05-04 19:21 | -30.55783 | 29.99093 | 28028 ft | 426 kts | 57° |
| 2026-05-04 19:21 | -30.54493 | 30.02170 | 27639 ft | 419 kts | 52° |
| 2026-05-04 19:21 | -30.52908 | 30.04942 | 27251 ft | 406 kts | 44° |
| 2026-05-04 19:21 | -30.51184 | 30.07515 | 26866 ft | 402 kts | 43° |
| 2026-05-04 19:22 | -30.49462 | 30.10044 | 26485 ft | 398 kts | 43° |
| 2026-05-04 19:22 | -30.47750 | 30.12558 | 26096 ft | 396 kts | 43° |
| 2026-05-04 19:22 | -30.46076 | 30.15031 | 25740 ft | 393 kts | 43° |
| 2026-05-04 19:22 | -30.44400 | 30.17520 | 25343 ft | 391 kts | 44° |
| 2026-05-04 19:23 | -30.42741 | 30.19995 | 24987 ft | 388 kts | 44° |
| 2026-05-04 19:23 | -30.41091 | 30.22461 | 24616 ft | 386 kts | 44° |
| 2026-05-04 19:23 | -30.39451 | 30.24914 | 24256 ft | 384 kts | 44° |
| 2026-05-04 19:23 | -30.37814 | 30.27360 | 23879 ft | 383 kts | 44° |
| 2026-05-04 19:24 | -30.36184 | 30.29794 | 23493 ft | 381 kts | 44° |
| 2026-05-04 19:24 | -30.34563 | 30.32216 | 23082 ft | 380 kts | 44° |
| 2026-05-04 19:24 | -30.33491 | 30.33815 | 22807 ft | 378 kts | 44° |
| 2026-05-04 19:24 | -30.31883 | 30.36214 | 22422 ft | 375 kts | 45° |
| 2026-05-04 19:25 | -30.30290 | 30.38591 | 22059 ft | 372 kts | 45° |
| 2026-05-04 19:25 | -30.28708 | 30.40949 | 21666 ft | 370 kts | 45° |
| 2026-05-04 19:25 | -30.27137 | 30.43289 | 21309 ft | 367 kts | 45° |
| 2026-05-04 19:25 | -30.25578 | 30.45611 | 21031 ft | 362 kts | 45° |
| 2026-05-04 19:26 | -30.24055 | 30.47881 | 20900 ft | 353 kts | 45° |
| 2026-05-04 19:26 | -30.22543 | 30.50097 | 20622 ft | 349 kts | 44° |
| 2026-05-04 19:26 | -30.21011 | 30.52263 | 20274 ft | 347 kts | 43° |
| 2026-05-04 19:26 | -30.19473 | 30.54412 | 19953 ft | 345 kts | 43° |
| 2026-05-04 19:27 | -30.17945 | 30.56546 | 19630 ft | 344 kts | 43° |
| 2026-05-04 19:27 | -30.16445 | 30.58644 | 19305 ft | 343 kts | 44° |
| 2026-05-04 19:27 | -30.14931 | 30.60764 | 18984 ft | 342 kts | 44° |
| 2026-05-04 19:27 | -30.13417 | 30.62888 | 18632 ft | 342 kts | 44° |
| 2026-05-04 19:28 | -30.11909 | 30.65005 | 18389 ft | 338 kts | 44° |
| 2026-05-04 19:28 | -30.10436 | 30.67077 | 18215 ft | 331 kts | 44° |
| 2026-05-04 19:28 | -30.08992 | 30.69106 | 18077 ft | 324 kts | 44° |
| 2026-05-04 19:28 | -30.07574 | 30.71095 | 17911 ft | 317 kts | 44° |
| 2026-05-04 19:29 | -30.06187 | 30.73041 | 17759 ft | 310 kts | 44° |
| 2026-05-04 19:29 | -30.04834 | 30.74938 | 17614 ft | 303 kts | 44° |
| 2026-05-04 19:29 | -30.03510 | 30.76792 | 17463 ft | 296 kts | 44° |
| 2026-05-04 19:29 | -30.02204 | 30.78619 | 17196 ft | 293 kts | 44° |
| 2026-05-04 19:30 | -30.00905 | 30.80431 | 16911 ft | 292 kts | 44° |
| 2026-05-04 19:30 | -29.99609 | 30.82237 | 16635 ft | 291 kts | 44° |
| 2026-05-04 19:30 | -29.98321 | 30.84030 | 16336 ft | 290 kts | 44° |
| 2026-05-04 19:30 | -29.97056 | 30.85790 | 16074 ft | 288 kts | 44° |
| 2026-05-04 19:31 | -29.95781 | 30.87565 | 15790 ft | 287 kts | 45° |
| 2026-05-04 19:31 | -29.94507 | 30.89339 | 15504 ft | 286 kts | 45° |
| 2026-05-04 19:31 | -29.93239 | 30.91104 | 15220 ft | 286 kts | 45° |
| 2026-05-04 19:31 | -29.91974 | 30.92863 | 14941 ft | 285 kts | 45° |
| 2026-05-04 19:32 | -29.90710 | 30.94620 | 14657 ft | 284 kts | 45° |
| 2026-05-04 19:32 | -29.89448 | 30.96375 | 14362 ft | 283 kts | 45° |
| 2026-05-04 19:32 | -29.88190 | 30.98122 | 14073 ft | 283 kts | 46° |
| 2026-05-04 19:32 | -29.86929 | 30.99872 | 13781 ft | 284 kts | 46° |
| 2026-05-04 19:33 | -29.85669 | 31.01621 | 13464 ft | 284 kts | 46° |
| 2026-05-04 19:33 | -29.84409 | 31.03370 | 13163 ft | 284 kts | 46° |
| 2026-05-04 19:33 | -29.83151 | 31.05117 | 12864 ft | 283 kts | 47° |
| 2026-05-04 19:33 | -29.81893 | 31.06862 | 12564 ft | 282 kts | 47° |
| 2026-05-04 19:34 | -29.80640 | 31.08599 | 12274 ft | 281 kts | 47° |
| 2026-05-04 19:34 | -29.79392 | 31.10328 | 11983 ft | 281 kts | 47° |
| 2026-05-04 19:34 | -29.78144 | 31.12056 | 11695 ft | 280 kts | 48° |
| 2026-05-04 19:34 | -29.76913 | 31.13754 | 11409 ft | 280 kts | 47° |
| 2026-05-04 19:35 | -29.75494 | 31.15301 | 11014 ft | 282 kts | 36° |
| 2026-05-04 19:35 | -29.73929 | 31.16660 | 10695 ft | 282 kts | 34° |
| 2026-05-04 19:35 | -29.72342 | 31.17985 | 10455 ft | 279 kts | 34° |
| 2026-05-04 19:35 | -29.70780 | 31.19295 | 10222 ft | 277 kts | 35° |
| 2026-05-04 19:36 | -29.69231 | 31.20606 | 9968 ft | 276 kts | 35° |
| 2026-05-04 19:36 | -29.67686 | 31.21925 | 9687 ft | 276 kts | 36° |
| 2026-05-04 19:36 | -29.66147 | 31.23249 | 9371 ft | 277 kts | 36° |
| 2026-05-04 19:36 | -29.64625 | 31.24562 | 9082 ft | 276 kts | 36° |
| 2026-05-04 19:37 | -29.63095 | 31.25887 | 8795 ft | 275 kts | 36° |
| 2026-05-04 19:37 | -29.61566 | 31.27212 | 8510 ft | 275 kts | 36° |
| 2026-05-04 19:37 | -29.60040 | 31.28535 | 8224 ft | 274 kts | 35° |
| 2026-05-04 19:37 | -29.58525 | 31.29849 | 7936 ft | 271 kts | 35° |
| 2026-05-04 19:38 | -29.57030 | 31.31147 | 7648 ft | 267 kts | 35° |
| 2026-05-04 19:38 | -29.55567 | 31.32416 | 7372 ft | 260 kts | 35° |
| 2026-05-04 19:38 | -29.54136 | 31.33658 | 7106 ft | 254 kts | 34° |
| 2026-05-04 19:38 | -29.52742 | 31.34867 | 6843 ft | 247 kts | 34° |
| 2026-05-04 19:39 | -29.51405 | 31.36026 | 6596 ft | 241 kts | 34° |
| 2026-05-04 19:39 | -29.50075 | 31.37176 | 6370 ft | 239 kts | 34° |
| 2026-05-04 19:39 | -29.48743 | 31.38329 | 6131 ft | 239 kts | 34° |
| 2026-05-04 19:39 | -29.47348 | 31.39370 | 5880 ft | 236 kts | 18° |
| 2026-05-04 19:40 | -29.45793 | 31.39561 | 5797 ft | 221 kts | 345° |
| 2026-05-04 19:40 | -29.44491 | 31.38771 | 5719 ft | 210 kts | 314° |
| 2026-05-04 19:40 | -29.43544 | 31.37491 | 5550 ft | 212 kts | 309° |
| 2026-05-04 19:40 | -29.42666 | 31.36154 | 5324 ft | 213 kts | 303° |
| 2026-05-04 19:41 | -29.42205 | 31.34546 | 5105 ft | 215 kts | 279° |
| 2026-05-04 19:41 | -29.42016 | 31.32863 | 4900 ft | 210 kts | 280° |
| 2026-05-04 19:41 | -29.41827 | 31.31229 | 4678 ft | 203 kts | 280° |
| 2026-05-04 19:41 | -29.41759 | 31.29650 | 4474 ft | 196 kts | 260° |
| 2026-05-04 19:42 | -29.42492 | 31.28383 | 4331 ft | 195 kts | 223° |
| 2026-05-04 19:42 | -29.43568 | 31.27384 | 4088 ft | 200 kts | 220° |
| 2026-05-04 19:42 | -29.44654 | 31.26405 | 3813 ft | 195 kts | 219° |
| 2026-05-04 19:42 | -29.45698 | 31.25485 | 3571 ft | 184 kts | 219° |
| 2026-05-04 19:43 | -29.46684 | 31.24620 | 3381 ft | 174 kts | 219° |
| 2026-05-04 19:43 | -29.47650 | 31.23773 | 3147 ft | 175 kts | 218° |
| 2026-05-04 19:43 | -29.48598 | 31.22943 | 2932 ft | 173 kts | 218° |
| 2026-05-04 19:43 | -29.49558 | 31.22101 | 2703 ft | 172 kts | 218° |
| 2026-05-04 19:44 | -29.50506 | 31.21271 | 2487 ft | 171 kts | 218° |
| 2026-05-04 19:44 | -29.51449 | 31.20445 | 2269 ft | 170 kts | 218° |
| 2026-05-04 19:44 | -29.52382 | 31.19627 | 2049 ft | 167 kts | 217° |
| 2026-05-04 19:44 | -29.53303 | 31.18821 | 1848 ft | 166 kts | 218° |
| 2026-05-04 19:45 | -29.54213 | 31.18024 | 1665 ft | 163 kts | 218° |
| 2026-05-04 19:45 | -29.55091 | 31.17254 | 1468 ft | 158 kts | 217° |
| 2026-05-04 19:45 | -29.55952 | 31.16500 | 1278 ft | 153 kts | 217° |
| 2026-05-04 19:45 | -29.56795 | 31.15761 | 1086 ft | 151 kts | 216° |
| 2026-05-04 19:46 | -29.57627 | 31.15034 | 889 ft | 151 kts | 217° |
| 2026-05-04 19:46 | -29.58463 | 31.14302 | 695 ft | 150 kts | 217° |
| 2026-05-04 19:46 | -29.59279 | 31.13583 | 530 ft | 148 kts | 216° |
| 2026-05-04 19:46 | -29.60102 | 31.12859 | 318 ft | 147 kts | 214° |
| 2026-05-04 19:47 | -29.60844 | 31.12220 | 300 ft | 114 kts | 217° |
| 2026-05-04 19:47 | -29.61352 | 31.11779 | 303 ft | 69 kts | 217° |
| 2026-05-04 19:47 | -29.61638 | 31.11534 | 298 ft | 43 kts | 217° |
| 2026-05-04 19:47 | -29.61871 | 31.11333 | 297 ft | 40 kts | 216° |
| 2026-05-04 19:48 | -29.62082 | 31.11151 | 297 ft | 36 kts | 217° |
| 2026-05-04 19:48 | -29.62253 | 31.11004 | 299 ft | 17 kts | 217° |
| 2026-05-04 19:48 | -29.62342 | 31.10925 | 299 ft | 15 kts | 217° |
| 2026-05-04 19:48 | -29.62424 | 31.10854 | 297 ft | 15 kts | 217° |
| 2026-05-04 19:49 | -29.62477 | 31.10764 | 299 ft | 14 kts | 276° |
| 2026-05-04 19:49 | -29.62425 | 31.10675 | 296 ft | 8 kts | 306° |
| 2026-05-04 19:49 | -29.62391 | 31.10622 | 298 ft | 11 kts | 306° |
| 2026-05-04 19:49 | -29.62341 | 31.10545 | 295 ft | 12 kts | 307° |
| 2026-05-04 19:50 | -29.62290 | 31.10471 | 295 ft | 12 kts | 309° |
| 2026-05-04 19:50 | -29.62225 | 31.10438 | 298 ft | 11 kts | 25° |
| 2026-05-04 19:50 | -29.62161 | 31.10489 | 295 ft | 11 kts | 33° |
| 2026-05-04 19:50 | -29.62102 | 31.10543 | 295 ft | 11 kts | 39° |
| 2026-05-04 19:51 | -29.62065 | 31.10577 | 295 ft | 3 kts | 37° |
| 2026-05-04 19:51 | -29.62036 | 31.10597 | 295 ft | 6 kts | 8° |
| 2026-05-04 19:51 | -29.62008 | 31.10566 | 296 ft | 6 kts | 308° |
| 2026-05-04 19:51 | -29.61999 | 31.10553 | 297 ft | 0 kts | 307° |
| 2026-05-04 19:52 | -29.61996 | 31.10549 | 296 ft | 1 kts | 307° |
| 2026-05-04 19:52 | -29.61995 | 31.10547 | 296 ft | 0 kts | 307° |
| 2026-05-04 19:52 | -29.61995 | 31.10546 | 296 ft | 0 kts | 307° |